createdAt,value
2022-09-23T00:00:17.566Z,101698.66
2022-09-23T00:03:21.626Z,101695.22
2022-09-23T00:06:24.398Z,101696.22
2022-09-23T00:09:25.987Z,101688.25
2022-09-23T00:12:27.766Z,101690.03
2022-09-23T00:15:31.296Z,101682.06
2022-09-23T00:18:33.451Z,101679.50
2022-09-23T00:21:35.034Z,101674.31
2022-09-23T00:24:36.593Z,101670.00
2022-09-23T00:27:39.118Z,101666.56
2022-09-23T00:30:42.116Z,101664.00
2022-09-23T00:33:43.724Z,101665.00
2022-09-23T00:36:45.320Z,101658.06
2022-09-23T00:39:47.078Z,101660.06
2022-09-23T00:42:52.168Z,101654.06
2022-09-23T00:45:54.934Z,101645.44
2022-09-23T00:49:23.261Z,101649.97
2022-09-23T00:52:25.166Z,101637.81
2022-09-23T00:55:36.856Z,101643.25
2022-09-23T00:58:40.985Z,101638.09
2022-09-23T01:01:44.381Z,101638.25
2022-09-23T01:04:46.141Z,101628.75
2022-09-23T01:07:48.317Z,101635.06
2022-09-23T01:11:14.745Z,101624.59
2022-09-23T01:14:27.041Z,101622.13
2022-09-23T01:17:47.616Z,101619.63
2022-09-23T01:20:50.536Z,101611.78
2022-09-23T01:24:29.337Z,101618.88
2022-09-23T01:28:00.116Z,101616.38
2022-09-23T01:31:04.907Z,101607.44
2022-09-23T01:34:22.331Z,101607.47
2022-09-23T01:37:50.588Z,101616.47
2022-09-23T01:41:03.414Z,101607.78
2022-09-23T01:44:43.142Z,101607.84
2022-09-23T01:48:13.882Z,101609.63
2022-09-23T01:51:39.058Z,101607.84
2022-09-23T01:54:50.690Z,101600.75
2022-09-23T01:58:09.874Z,101597.97
2022-09-23T02:01:21.621Z,101602.34
2022-09-23T02:04:31.139Z,101592.53
2022-09-23T02:07:39.534Z,101594.31
2022-09-23T02:10:58.763Z,101588.16
2022-09-23T02:14:14.831Z,101587.34
2022-09-23T02:17:27.290Z,101591.88
2022-09-23T02:20:32.970Z,101588.41
2022-09-23T02:23:50.643Z,101589.38
2022-09-23T02:26:59.243Z,101582.34
2022-09-23T02:30:09.841Z,101575.28
2022-09-23T02:33:24.775Z,101580.59
2022-09-23T02:37:11.396Z,101578.81
2022-09-23T02:40:41.918Z,101577.03
2022-09-23T02:43:54.793Z,101577.91
2022-09-23T02:46:56.836Z,101570.84
2022-09-23T02:49:58.345Z,101570.84
2022-09-23T02:53:01.089Z,101570.81
2022-09-23T02:56:13.239Z,101568.94
2022-09-23T02:59:19.500Z,101568.88
2022-09-23T03:02:51.270Z,101569.72
2022-09-23T03:05:58.746Z,101563.63
2022-09-23T03:09:08.627Z,101565.50
2022-09-23T03:12:31.822Z,101552.38
2022-09-23T03:15:45.137Z,101552.38
2022-09-23T03:18:56.061Z,101549.78
2022-09-23T03:22:07.544Z,101548.00
2022-09-23T03:25:14.503Z,101549.78
2022-09-23T03:28:20.290Z,101544.56
2022-09-23T03:31:21.940Z,101540.16
2022-09-23T03:34:28.255Z,101542.88
2022-09-23T03:37:39.048Z,101535.16
2022-09-23T03:40:43.655Z,101526.44
2022-09-23T03:43:46.188Z,101526.53
2022-09-23T03:46:50.652Z,101521.28
2022-09-23T03:49:53.589Z,101522.22
2022-09-23T03:52:55.751Z,101522.22
2022-09-23T03:55:57.290Z,101516.06
2022-09-23T03:58:58.932Z,101512.53
2022-09-23T04:02:01.005Z,101509.84
2022-09-23T04:05:03.172Z,101503.72
2022-09-23T04:08:04.708Z,101506.38
2022-09-23T04:11:07.009Z,101495.84
2022-09-23T04:14:09.245Z,101491.53
2022-09-23T04:17:12.165Z,101490.84
2022-09-23T04:20:13.796Z,101485.72
2022-09-23T04:23:15.908Z,101489.34
2022-09-23T04:26:19.084Z,101480.56
2022-09-23T04:29:21.272Z,101484.91
2022-09-23T04:32:22.776Z,101480.50
2022-09-23T04:35:24.464Z,101481.34
2022-09-23T04:38:26.204Z,101479.63
2022-09-23T04:41:27.882Z,101477.09
2022-09-23T04:44:29.592Z,101474.59
2022-09-23T04:47:32.211Z,101477.44
2022-09-23T04:50:34.026Z,101473.78
2022-09-23T04:53:37.056Z,101475.53
2022-09-23T04:56:39.739Z,101472.75
2022-09-23T04:59:41.549Z,101470.97
2022-09-23T05:02:47.847Z,101475.41
2022-09-23T05:05:49.536Z,101470.22
2022-09-23T05:08:53.008Z,101462.47
2022-09-23T05:11:54.713Z,101463.69
2022-09-23T05:14:56.585Z,101460.41
2022-09-23T05:17:59.231Z,101465.91
2022-09-23T05:21:01.561Z,101458.06
2022-09-23T05:24:03.227Z,101458.25
2022-09-23T05:27:07.117Z,101461.03
2022-09-23T05:30:09.595Z,101459.41
2022-09-23T05:33:11.863Z,101455.09
2022-09-23T05:36:13.864Z,101457.84
2022-09-23T05:39:15.528Z,101458.81
2022-09-23T05:42:21.011Z,101463.72
2022-09-23T05:45:22.599Z,101466.03
2022-09-23T05:48:24.197Z,101458.97
2022-09-23T05:51:30.772Z,101458.19
2022-09-23T05:54:33.025Z,101456.28
2022-09-23T05:57:34.675Z,101458.22
2022-09-23T06:00:36.283Z,101460.84
2022-09-23T06:03:38.345Z,101455.19
2022-09-23T06:06:42.052Z,101463.91
2022-09-23T06:09:44.116Z,101464.78
2022-09-23T06:12:45.657Z,101457.34
2022-09-23T06:15:47.329Z,101462.56
2022-09-23T06:18:48.905Z,101459.91
2022-09-23T06:21:50.412Z,101465.22
2022-09-23T06:24:51.992Z,101469.50
2022-09-23T06:27:54.836Z,101465.69
2022-09-23T06:31:00.469Z,101469.81
2022-09-23T06:34:11.047Z,101467.84
2022-09-23T06:37:19.683Z,101466.94
2022-09-23T06:40:22.703Z,101466.72
2022-09-23T06:43:26.031Z,101474.22
2022-09-23T06:46:28.211Z,101475.66
2022-09-23T06:49:29.912Z,101476.28
2022-09-23T06:52:31.432Z,101474.56
2022-09-23T06:55:33.063Z,101467.97
2022-09-23T06:58:36.221Z,101468.59
2022-09-23T07:01:38.256Z,101467.44
2022-09-23T07:04:40.495Z,101474.22
2022-09-23T07:07:42.106Z,101474.94
2022-09-23T07:10:44.087Z,101473.38
2022-09-23T07:13:45.922Z,101465.56
2022-09-23T07:16:51.411Z,101466.81
2022-09-23T07:19:55.144Z,101467.34
2022-09-23T07:22:56.921Z,101467.03
2022-09-23T07:25:58.700Z,101463.22
2022-09-23T07:29:05.254Z,101461.94
2022-09-23T07:32:13.877Z,101459.03
2022-09-23T07:35:16.518Z,101468.50
2022-09-23T07:38:18.141Z,101466.44
2022-09-23T07:41:19.872Z,101465.16
2022-09-23T07:44:21.948Z,101462.16
2022-09-23T07:47:23.576Z,101462.69
2022-09-23T07:50:25.253Z,101465.09
2022-09-23T07:53:27.481Z,101451.53
2022-09-23T07:56:30.634Z,101454.81
2022-09-23T07:59:32.246Z,101454.47
2022-09-23T08:02:33.869Z,101461.22
2022-09-23T08:05:36.531Z,101453.84
2022-09-23T08:08:47.995Z,101454.38
2022-09-23T08:11:53.072Z,101449.66
2022-09-23T08:14:54.760Z,101454.56
2022-09-23T08:17:59.780Z,101454.97
2022-09-23T08:21:01.716Z,101459.03
2022-09-23T08:24:03.387Z,101456.78
2022-09-23T08:27:05.108Z,101458.13
2022-09-23T08:30:07.212Z,101448.00
2022-09-23T08:33:10.044Z,101451.84
2022-09-23T08:36:11.696Z,101449.88
2022-09-23T08:39:15.876Z,101447.41
2022-09-23T08:42:32.385Z,101446.03
2022-09-23T08:45:36.624Z,101457.09
2022-09-23T08:48:46.358Z,101453.84
2022-09-23T08:51:48.563Z,101439.06
2022-09-23T08:54:54.656Z,101452.72
2022-09-23T08:58:24.323Z,101438.84
2022-09-23T09:01:50.123Z,101436.44
2022-09-23T09:05:00.346Z,101429.69
2022-09-23T09:08:03.863Z,101433.56
2022-09-23T09:11:06.904Z,101431.28
2022-09-23T09:14:38.005Z,101429.72
2022-09-23T09:18:01.285Z,101423.69
2022-09-23T09:21:12.938Z,101428.44
2022-09-23T09:24:21.624Z,101426.88
2022-09-23T09:27:24.077Z,101419.97
2022-09-23T09:30:25.727Z,101423.00
2022-09-23T09:33:35.575Z,101421.53
2022-09-23T09:37:07.567Z,101422.75
2022-09-23T09:40:13.596Z,101414.28
2022-09-23T09:43:23.724Z,101418.25
2022-09-23T09:46:51.938Z,101418.59
2022-09-23T09:50:04.282Z,101416.28
2022-09-23T09:53:35.834Z,101404.06
2022-09-23T09:56:37.667Z,101402.78
2022-09-23T09:59:44.077Z,101397.03
2022-09-23T10:02:47.373Z,101400.84
2022-09-23T10:05:52.436Z,101397.56
2022-09-23T10:09:16.977Z,101403.72
2022-09-23T10:12:25.672Z,101393.91
2022-09-23T10:15:34.783Z,101390.34
2022-09-23T10:18:38.140Z,101388.91
2022-09-23T10:21:42.315Z,101395.44
2022-09-23T10:24:48.761Z,101392.09
2022-09-23T10:27:50.336Z,101383.41
2022-09-23T10:31:11.634Z,101388.16
2022-09-23T10:34:27.040Z,101386.97
2022-09-23T10:37:33.990Z,101384.91
2022-09-23T10:40:59.685Z,101380.81
2022-09-23T10:44:16.616Z,101377.44
2022-09-23T10:47:23.919Z,101383.91
2022-09-23T10:50:38.302Z,101388.75
2022-09-23T10:54:06.341Z,101381.84
2022-09-23T10:57:43.035Z,101371.63
2022-09-23T11:01:10.048Z,101377.47
2022-09-23T11:04:32.327Z,101372.75
2022-09-23T11:07:44.374Z,101375.91
2022-09-23T11:10:55.072Z,101366.94
2022-09-23T11:14:04.123Z,101372.19
2022-09-23T11:17:14.787Z,101361.47
2022-09-23T11:20:16.409Z,101354.88
2022-09-23T11:23:45.760Z,101358.44
2022-09-23T11:27:42.682Z,101351.34
2022-09-23T11:31:05.748Z,101345.84
2022-09-23T11:34:41.437Z,101340.47
2022-09-23T11:37:58.773Z,101338.59
2022-09-23T11:41:07.124Z,101347.75
2022-09-23T11:44:28.351Z,101337.91
2022-09-23T11:47:43.577Z,101338.28
2022-09-23T11:50:54.102Z,101332.38
2022-09-23T11:54:02.977Z,101322.97
2022-09-23T11:57:10.012Z,101325.28
2022-09-23T12:00:38.492Z,101319.56
2022-09-23T12:03:52.464Z,101320.38
2022-09-23T12:07:16.652Z,101317.44
2022-09-23T12:10:18.554Z,101320.13
2022-09-23T12:13:29.256Z,101321.44
2022-09-23T12:16:31.065Z,101313.25
2022-09-23T12:20:11.260Z,101310.16
2022-09-23T12:23:40.441Z,101314.41
2022-09-23T12:26:44.342Z,101312.06
2022-09-23T12:29:55.742Z,101309.31
2022-09-23T12:33:09.483Z,101318.22
2022-09-23T12:36:15.172Z,101313.25
2022-09-23T12:39:24.710Z,101306.44
2022-09-23T12:42:30.919Z,101312.19
2022-09-23T12:45:36.588Z,101307.09
2022-09-23T12:48:46.936Z,101301.97
2022-09-23T12:52:16.427Z,101308.31
2022-09-23T12:55:22.079Z,101302.22
2022-09-23T12:58:58.034Z,101306.19
2022-09-23T13:02:24.481Z,101298.09
2022-09-23T13:05:45.400Z,101294.66
2022-09-23T13:08:49.312Z,101294.66
2022-09-23T13:11:53.178Z,101294.66
2022-09-23T13:15:00.747Z,101296.25
2022-09-23T13:18:21.118Z,101286.25
2022-09-23T13:22:01.154Z,101285.94
2022-09-23T13:25:16.133Z,101276.78
2022-09-23T13:28:34.516Z,101275.53
2022-09-23T13:31:36.504Z,101266.63
2022-09-23T13:34:39.911Z,101271.13
2022-09-23T13:37:50.265Z,101258.56
2022-09-23T13:40:59.366Z,101251.44
2022-09-23T13:44:03.135Z,101260.53
2022-09-23T13:47:06.449Z,101256.00
2022-09-23T13:50:17.157Z,101255.16
2022-09-23T13:53:30.728Z,101259.81
2022-09-23T13:56:35.670Z,101257.13
2022-09-23T13:59:41.630Z,101254.69
2022-09-23T14:02:44.866Z,101252.97
2022-09-23T14:05:48.588Z,101246.88
2022-09-23T14:08:51.557Z,101253.13
2022-09-23T14:11:55.022Z,101255.91
2022-09-23T14:14:57.300Z,101257.88
2022-09-23T14:18:03.708Z,101246.56
2022-09-23T14:21:06.486Z,101242.31
2022-09-23T14:24:35.403Z,101243.41
2022-09-23T14:27:37.186Z,101248.19
2022-09-23T14:30:39.236Z,101235.75
2022-09-23T14:33:42.782Z,101239.41
2022-09-23T14:37:02.837Z,101237.59
2022-09-23T14:40:10.528Z,101240.34
2022-09-23T14:43:19.384Z,101243.03
2022-09-23T14:46:23.460Z,101242.31
2022-09-23T14:49:25.842Z,101242.31
2022-09-23T14:52:27.517Z,101237.19
2022-09-23T14:55:29.221Z,101232.81
2022-09-23T14:58:30.896Z,101220.50
2022-09-23T15:01:32.692Z,101232.38
2022-09-23T15:04:35.482Z,101225.16
2022-09-23T15:07:38.311Z,101227.94
2022-09-23T15:10:40.360Z,101220.03
2022-09-23T15:13:44.581Z,101211.25
2022-09-23T15:16:48.060Z,101214.66
2022-09-23T15:19:56.890Z,101209.41
2022-09-23T15:22:58.514Z,101204.03
2022-09-23T15:26:05.925Z,101202.44
2022-09-23T15:29:11.281Z,101207.00
2022-09-23T15:32:12.868Z,101196.25
2022-09-23T15:35:19.982Z,101192.69
2022-09-23T15:38:22.325Z,101193.81
2022-09-23T15:41:24.424Z,101192.97
2022-09-23T15:44:29.729Z,101194.94
2022-09-23T15:47:31.677Z,101195.06
2022-09-23T15:50:36.827Z,101184.56
2022-09-23T15:53:38.494Z,101192.75
2022-09-23T15:56:40.016Z,101184.97
2022-09-23T15:59:41.516Z,101196.84
2022-09-23T16:02:45.658Z,101193.41
2022-09-23T16:05:49.195Z,101196.38
2022-09-23T16:08:52.309Z,101198.31
2022-09-23T16:11:54.398Z,101195.03
2022-09-23T16:14:56.048Z,101195.16
2022-09-23T16:17:58.631Z,101197.13
2022-09-23T16:21:00.456Z,101194.81
2022-09-23T16:24:02.211Z,101193.38
2022-09-23T16:27:07.725Z,101190.00
2022-09-23T16:30:10.311Z,101186.69
2022-09-23T16:33:11.879Z,101190.47
2022-09-23T16:36:31.645Z,101188.19
2022-09-23T16:39:33.278Z,101183.31
2022-09-23T16:42:35.090Z,101183.56
2022-09-23T16:45:36.783Z,101183.84
2022-09-23T16:48:40.588Z,101176.03
2022-09-23T16:51:42.431Z,101181.75
2022-09-23T16:54:45.447Z,101175.78
2022-09-23T16:57:47.162Z,101182.25
2022-09-23T17:01:07.616Z,101179.94
2022-09-23T17:04:10.773Z,101173.13
2022-09-23T17:07:12.705Z,101166.28
2022-09-23T17:10:18.611Z,101174.72
2022-09-23T17:13:20.254Z,101170.47
2022-09-23T17:16:30.452Z,101166.19
2022-09-23T17:19:33.883Z,101174.09
2022-09-23T17:22:35.742Z,101172.91
2022-09-23T17:25:37.342Z,101175.44
2022-09-23T17:28:39.629Z,101176.31
2022-09-23T17:31:41.335Z,101176.16
2022-09-23T17:34:44.016Z,101177.03
2022-09-23T17:37:48.880Z,101179.59
2022-09-23T17:40:55.632Z,101179.66
2022-09-23T17:43:58.554Z,101175.50
2022-09-23T17:47:00.780Z,101179.06
2022-09-23T17:50:02.417Z,101176.75
2022-09-23T17:53:05.152Z,101176.91
2022-09-23T17:56:29.926Z,101176.13
2022-09-23T17:59:31.550Z,101177.25
2022-09-23T18:02:33.337Z,101184.44
2022-09-23T18:05:34.953Z,101184.53
2022-09-23T18:08:37.269Z,101188.22
2022-09-23T18:11:42.215Z,101187.38
2022-09-23T18:14:45.385Z,101186.66
2022-09-23T18:17:46.929Z,101180.56
2022-09-23T18:20:48.556Z,101186.03
2022-09-23T18:23:50.536Z,101179.94
2022-09-23T18:26:52.921Z,101181.91
2022-09-23T18:29:54.531Z,101180.31
2022-09-23T18:32:56.299Z,101186.66
2022-09-23T18:36:00.006Z,101175.34
2022-09-23T18:39:01.781Z,101176.31
2022-09-23T18:42:03.551Z,101175.59
2022-09-23T18:45:05.662Z,101179.00
2022-09-23T18:48:28.012Z,101170.81
2022-09-23T18:51:30.777Z,101159.47
2022-09-23T18:54:32.527Z,101171.44
2022-09-23T18:57:34.168Z,101157.44
2022-09-23T19:00:36.056Z,101164.84
2022-09-23T19:03:37.757Z,101169.50
2022-09-23T19:06:39.885Z,101165.13
2022-09-23T19:09:42.063Z,101168.78
2022-09-23T19:12:43.761Z,101173.19
2022-09-23T19:15:46.976Z,101174.28
2022-09-23T19:18:49.679Z,101166.34
2022-09-23T19:21:51.290Z,101166.59
2022-09-23T19:24:52.856Z,101164.75
2022-09-23T19:27:54.570Z,101154.16
2022-09-23T19:30:56.686Z,101152.81
2022-09-23T19:34:01.425Z,101147.84
2022-09-23T19:37:04.614Z,101155.16
2022-09-23T19:40:06.935Z,101150.03
2022-09-23T19:43:08.606Z,101144.91
2022-09-23T19:46:10.321Z,101151.38
2022-09-23T19:49:12.468Z,101156.88
2022-09-23T19:52:14.035Z,101151.50
2022-09-23T19:55:15.719Z,101156.16
2022-09-23T19:58:17.333Z,101138.47
2022-09-23T20:01:19.399Z,101142.25
2022-09-23T20:04:21.298Z,101145.19
2022-09-23T20:07:23.253Z,101139.09
2022-09-23T20:10:26.150Z,101151.72
2022-09-23T20:13:28.782Z,101137.75
2022-09-23T20:16:33.329Z,101139.56
2022-09-23T20:19:34.880Z,101145.97
2022-09-23T20:22:36.905Z,101135.63
2022-09-23T20:25:57.506Z,101137.81
2022-09-23T20:29:02.391Z,101138.19
2022-09-23T20:32:04.252Z,101138.28
2022-09-23T20:35:06.618Z,101140.38
2022-09-23T20:38:08.312Z,101141.34
2022-09-23T20:41:10.163Z,101137.94
2022-09-23T20:44:12.415Z,101134.63
2022-09-23T20:47:16.342Z,101138.53
2022-09-23T20:50:18.005Z,101144.97
2022-09-23T20:53:22.161Z,101138.03
2022-09-23T20:56:24.462Z,101137.31
2022-09-23T20:59:27.296Z,101133.91
2022-09-23T21:02:28.928Z,101138.63
2022-09-23T21:05:30.596Z,101134.38
2022-09-23T21:08:36.236Z,101130.72
2022-09-23T21:11:38.256Z,101128.91
2022-09-23T21:14:39.836Z,101132.69
2022-09-23T21:17:41.372Z,101133.63
2022-09-23T21:20:43.136Z,101132.19
2022-09-23T21:23:45.797Z,101127.06
2022-09-23T21:26:47.846Z,101122.88
2022-09-23T21:29:49.387Z,101133.72
2022-09-23T21:32:50.952Z,101126.56
2022-09-23T21:35:56.466Z,101117.66
2022-09-23T21:38:59.123Z,101126.78
2022-09-23T21:42:01.533Z,101131.28
2022-09-23T21:45:04.357Z,101136.78
2022-09-23T21:48:05.848Z,101137.63
2022-09-23T21:51:14.173Z,101135.78
2022-09-23T21:54:16.961Z,101124.09
2022-09-23T21:57:18.501Z,101135.78
2022-09-23T22:00:20.118Z,101132.28
2022-09-23T22:03:21.662Z,101130.56
2022-09-23T22:06:27.725Z,101132.38
2022-09-23T22:09:29.221Z,101144.81
2022-09-23T22:12:30.816Z,101135.06
2022-09-23T22:15:36.715Z,101131.50
2022-09-23T22:18:38.249Z,101129.91
2022-09-23T22:21:41.807Z,101126.50
2022-09-23T22:24:46.939Z,101117.75
2022-09-23T22:28:07.154Z,101123.25
2022-09-23T22:31:27.879Z,101119.94
2022-09-23T22:34:48.394Z,101122.97
2022-09-23T22:37:51.102Z,101113.69
2022-09-23T22:40:53.341Z,101119.47
2022-09-23T22:43:55.874Z,101120.69
2022-09-23T22:46:58.636Z,101120.19
2022-09-23T22:50:00.764Z,101118.72
2022-09-23T22:53:02.268Z,101118.06
2022-09-23T22:56:03.794Z,101120.25
2022-09-23T22:59:07.396Z,101123.25
2022-09-23T23:02:09.031Z,101115.59
2022-09-23T23:05:11.196Z,101113.13
2022-09-23T23:08:16.991Z,101112.41
2022-09-23T23:11:18.503Z,101110.91
2022-09-23T23:14:20.446Z,101109.31
2022-09-23T23:17:22.035Z,101105.28
2022-09-23T23:20:23.746Z,101103.06
2022-09-23T23:23:25.247Z,101096.34
2022-09-23T23:26:29.100Z,101098.41
2022-09-23T23:29:30.652Z,101096.16
2022-09-23T23:32:32.333Z,101088.47
2022-09-23T23:35:33.899Z,101087.84
2022-09-23T23:38:40.295Z,101085.28
2022-09-23T23:41:42.536Z,101082.75
2022-09-23T23:44:44.552Z,101078.34
2022-09-23T23:47:46.420Z,101081.97
2022-09-23T23:50:59.084Z,101078.56
2022-09-23T23:54:00.838Z,101078.78
2022-09-23T23:57:02.413Z,101071.75
